sensor_id;sensor_type;location;lat;lon;timestamp;pressure;altitude;pressure_sealevel;temperature;humidity
72024;BME280;59889;50.700;5.440;2024-02-26T00:01:54;97973.81;;;20.77;34.14
72024;BME280;59889;50.700;5.440;2024-02-26T00:04:19;97972.00;;;21.05;34.12
72024;BME280;59889;50.700;5.440;2024-02-26T00:06:44;97973.99;;;20.95;34.22
72024;BME280;59889;50.700;5.440;2024-02-26T00:09:10;97974.42;;;20.98;34.18
72024;BME280;59889;50.700;5.440;2024-02-26T00:11:35;97967.10;;;21.01;34.16
72024;BME280;59889;50.700;5.440;2024-02-26T00:13:59;97964.61;;;20.92;34.26
72024;BME280;59889;50.700;5.440;2024-02-26T00:16:24;97966.74;;;20.95;34.21
72024;BME280;59889;50.700;5.440;2024-02-26T00:18:50;97960.36;;;20.94;34.24
72024;BME280;59889;50.700;5.440;2024-02-26T00:21:15;97958.32;;;20.71;34.23
72024;BME280;59889;50.700;5.440;2024-02-26T00:23:40;97959.39;;;20.92;34.24
72024;BME280;59889;50.700;5.440;2024-02-26T00:26:05;97955.94;;;20.98;34.18
72024;BME280;59889;50.700;5.440;2024-02-26T00:28:30;97950.16;;;20.91;34.26
72024;BME280;59889;50.700;5.440;2024-02-26T00:30:55;97952.96;;;20.87;34.29
72024;BME280;59889;50.700;5.440;2024-02-26T00:33:21;97954.77;;;20.80;34.40
72024;BME280;59889;50.700;5.440;2024-02-26T00:35:45;97955.50;;;20.90;34.30
72024;BME280;59889;50.700;5.440;2024-02-26T00:38:10;97962.29;;;20.67;34.28
72024;BME280;59889;50.700;5.440;2024-02-26T00:40:35;97964.89;;;20.64;34.30
72024;BME280;59889;50.700;5.440;2024-02-26T00:43:00;97959.35;;;20.94;34.25
72024;BME280;59889;50.700;5.440;2024-02-26T00:45:25;97957.60;;;20.79;34.40
72024;BME280;59889;50.700;5.440;2024-02-26T00:47:50;97951.50;;;20.89;34.29
72024;BME280;59889;50.700;5.440;2024-02-26T00:50:15;97947.39;;;20.80;34.39
72024;BME280;59889;50.700;5.440;2024-02-26T00:52:40;97944.48;;;21.10;34.31
72024;BME280;59889;50.700;5.440;2024-02-26T00:55:06;97944.20;;;20.83;34.34
72024;BME280;59889;50.700;5.440;2024-02-26T00:57:30;97945.79;;;20.75;34.47
72024;BME280;59889;50.700;5.440;2024-02-26T00:59:55;97943.86;;;20.79;34.43
72024;BME280;59889;50.700;5.440;2024-02-26T01:02:20;97940.57;;;20.75;34.47
72024;BME280;59889;50.700;5.440;2024-02-26T01:04:45;97944.25;;;20.88;34.27
72024;BME280;59889;50.700;5.440;2024-02-26T01:07:10;97944.02;;;20.97;34.18
72024;BME280;59889;50.700;5.440;2024-02-26T01:09:36;97938.12;;;21.32;34.34
72024;BME280;59889;50.700;5.440;2024-02-26T01:12:01;97941.59;;;20.76;34.42
72024;BME280;59889;50.700;5.440;2024-02-26T01:14:26;97945.27;;;20.82;34.38
72024;BME280;59889;50.700;5.440;2024-02-26T01:16:51;97943.45;;;20.74;34.44
72024;BME280;59889;50.700;5.440;2024-02-26T01:19:16;97941.54;;;20.58;34.39
72024;BME280;59889;50.700;5.440;2024-02-26T01:21:41;97942.25;;;20.80;34.43
72024;BME280;59889;50.700;5.440;2024-02-26T01:24:06;97939.25;;;20.77;34.46
72024;BME280;59889;50.700;5.440;2024-02-26T01:26:31;97942.21;;;20.60;34.34
72024;BME280;59889;50.700;5.440;2024-02-26T01:28:56;97937.09;;;20.75;34.42
72024;BME280;59889;50.700;5.440;2024-02-26T01:31:21;97933.48;;;20.85;34.33
72024;BME280;59889;50.700;5.440;2024-02-26T01:33:46;97927.46;;;21.28;34.32
72024;BME280;59889;50.700;5.440;2024-02-26T01:36:12;97927.02;;;20.85;34.27
72024;BME280;59889;50.700;5.440;2024-02-26T01:38:36;97924.29;;;21.02;34.35
72024;BME280;59889;50.700;5.440;2024-02-26T01:41:01;97931.43;;;20.78;34.37
72024;BME280;59889;50.700;5.440;2024-02-26T01:43:26;97929.04;;;20.71;34.46
72024;BME280;59889;50.700;5.440;2024-02-26T01:45:51;97927.00;;;20.74;34.46
72024;BME280;59889;50.700;5.440;2024-02-26T01:48:16;97922.96;;;20.98;34.42
72024;BME280;59889;50.700;5.440;2024-02-26T01:50:41;97921.91;;;20.75;34.45
72024;BME280;59889;50.700;5.440;2024-02-26T01:53:07;97921.31;;;20.68;34.50
72024;BME280;59889;50.700;5.440;2024-02-26T01:55:31;97923.41;;;20.76;34.41
72024;BME280;59889;50.700;5.440;2024-02-26T01:57:56;97926.79;;;20.69;34.46
72024;BME280;59889;50.700;5.440;2024-02-26T02:00:23;97926.01;;;20.76;34.39
72024;BME280;59889;50.700;5.440;2024-02-26T02:02:47;97931.92;;;20.95;34.41
72024;BME280;59889;50.700;5.440;2024-02-26T02:05:12;97938.11;;;20.79;34.39
72024;BME280;59889;50.700;5.440;2024-02-26T02:07:37;97939.81;;;20.46;34.49
72024;BME280;59889;50.700;5.440;2024-02-26T02:10:02;97945.72;;;20.72;34.47
72024;BME280;59889;50.700;5.440;2024-02-26T02:12:27;97942.68;;;20.63;34.56
72024;BME280;59889;50.700;5.440;2024-02-26T02:14:52;97939.17;;;20.44;34.50
72024;BME280;59889;50.700;5.440;2024-02-26T02:17:17;97942.79;;;20.66;34.54
72024;BME280;59889;50.700;5.440;2024-02-26T02:19:42;97943.27;;;20.96;34.41
72024;BME280;59889;50.700;5.440;2024-02-26T02:22:07;97942.43;;;20.72;34.46
72024;BME280;59889;50.700;5.440;2024-02-26T02:24:32;97938.35;;;20.95;34.44
72024;BME280;59889;50.700;5.440;2024-02-26T02:26:57;97941.46;;;20.43;34.53
72024;BME280;59889;50.700;5.440;2024-02-26T02:29:22;97936.24;;;20.67;34.49
72024;BME280;59889;50.700;5.440;2024-02-26T02:31:47;97937.19;;;20.29;34.64
72024;BME280;59889;50.700;5.440;2024-02-26T02:34:12;97937.72;;;20.57;34.61
72024;BME280;59889;50.700;5.440;2024-02-26T02:36:48;97938.70;;;20.85;34.57
72024;BME280;59889;50.700;5.440;2024-02-26T02:39:03;97935.37;;;20.87;34.58
72024;BME280;59889;50.700;5.440;2024-02-26T02:41:27;97938.50;;;20.87;34.50
72024;BME280;59889;50.700;5.440;2024-02-26T02:43:52;97936.46;;;20.62;34.53
72024;BME280;59889;50.700;5.440;2024-02-26T02:46:17;97936.55;;;20.63;34.53
72024;BME280;59889;50.700;5.440;2024-02-26T02:48:42;97937.79;;;20.74;34.40
72024;BME280;59889;50.700;5.440;2024-02-26T02:51:07;97936.27;;;20.68;34.47
72024;BME280;59889;50.700;5.440;2024-02-26T02:53:34;97938.66;;;20.86;34.62
72024;BME280;59889;50.700;5.440;2024-02-26T02:55:57;97935.44;;;20.60;34.60
72024;BME280;59889;50.700;5.440;2024-02-26T02:58:22;97934.31;;;20.65;34.50
72024;BME280;59889;50.700;5.440;2024-02-26T03:00:47;97935.31;;;20.70;34.41
72024;BME280;59889;50.700;5.440;2024-02-26T03:03:12;97937.68;;;20.64;34.52
72024;BME280;59889;50.700;5.440;2024-02-26T03:05:38;97942.29;;;20.53;34.72
72024;BME280;59889;50.700;5.440;2024-02-26T03:08:03;97943.30;;;20.37;34.60
72024;BME280;59889;50.700;5.440;2024-02-26T03:10:28;97945.98;;;20.59;34.57
72024;BME280;59889;50.700;5.440;2024-02-26T03:12:53;97948.37;;;20.59;34.53
72024;BME280;59889;50.700;5.440;2024-02-26T03:15:18;97948.37;;;20.87;34.47
72024;BME280;59889;50.700;5.440;2024-02-26T03:17:43;97941.88;;;20.49;34.65
72024;BME280;59889;50.700;5.440;2024-02-26T03:20:09;97937.91;;;20.58;34.64
72024;BME280;59889;50.700;5.440;2024-02-26T03:22:33;97937.03;;;20.65;34.45
72024;BME280;59889;50.700;5.440;2024-02-26T03:24:58;97938.45;;;20.67;34.52
72024;BME280;59889;50.700;5.440;2024-02-26T03:27:23;97938.30;;;20.90;34.53
72024;BME280;59889;50.700;5.440;2024-02-26T03:29:48;97936.79;;;20.60;34.56
72024;BME280;59889;50.700;5.440;2024-02-26T03:32:13;97934.50;;;20.54;34.61
72024;BME280;59889;50.700;5.440;2024-02-26T03:34:38;97937.68;;;20.87;34.47
72024;BME280;59889;50.700;5.440;2024-02-26T03:37:03;97938.71;;;20.58;34.60
72024;BME280;59889;50.700;5.440;2024-02-26T03:39:28;97938.85;;;20.61;34.57
72024;BME280;59889;50.700;5.440;2024-02-26T03:41:54;97938.39;;;20.52;34.64
72024;BME280;59889;50.700;5.440;2024-02-26T03:44:18;97941.37;;;20.69;34.44
72024;BME280;59889;50.700;5.440;2024-02-26T03:46:43;97946.12;;;20.57;34.54
72024;BME280;59889;50.700;5.440;2024-02-26T03:49:09;97948.66;;;20.63;34.53
72024;BME280;59889;50.700;5.440;2024-02-26T03:51:34;97953.10;;;20.70;34.42
72024;BME280;59889;50.700;5.440;2024-02-26T03:53:59;97953.38;;;20.63;34.55
72024;BME280;59889;50.700;5.440;2024-02-26T03:56:24;97955.92;;;20.52;34.67
72024;BME280;59889;50.700;5.440;2024-02-26T03:58:48;97952.41;;;20.67;34.47
72024;BME280;59889;50.700;5.440;2024-02-26T04:01:14;97950.59;;;20.57;34.57
72024;BME280;59889;50.700;5.440;2024-02-26T04:03:39;97946.08;;;20.54;34.62
72024;BME280;59889;50.700;5.440;2024-02-26T04:06:08;97940.32;;;20.53;34.60
72024;BME280;59889;50.700;5.440;2024-02-26T04:08:29;97941.34;;;20.59;34.54
72024;BME280;59889;50.700;5.440;2024-02-26T04:10:54;97948.17;;;20.53;34.58
72024;BME280;59889;50.700;5.440;2024-02-26T04:13:19;97951.59;;;20.60;34.55
72024;BME280;59889;50.700;5.440;2024-02-26T04:15:44;97953.34;;;20.53;34.54
72024;BME280;59889;50.700;5.440;2024-02-26T04:18:09;97950.45;;;20.53;34.62
72024;BME280;59889;50.700;5.440;2024-02-26T04:20:34;97951.42;;;20.88;34.47
72024;BME280;59889;50.700;5.440;2024-02-26T04:22:59;97954.48;;;20.84;34.59
72024;BME280;59889;50.700;5.440;2024-02-26T04:25:24;97953.61;;;20.59;34.53
72024;BME280;59889;50.700;5.440;2024-02-26T04:27:49;97957.54;;;20.45;34.69
72024;BME280;59889;50.700;5.440;2024-02-26T04:30:15;97960.08;;;20.54;34.59
72024;BME280;59889;50.700;5.440;2024-02-26T04:32:39;97960.07;;;20.42;34.74
72024;BME280;59889;50.700;5.440;2024-02-26T04:35:05;97959.83;;;20.55;34.65
72024;BME280;59889;50.700;5.440;2024-02-26T04:37:29;97959.04;;;20.57;34.62
72024;BME280;59889;50.700;5.440;2024-02-26T04:39:54;97961.55;;;20.72;34.65
72024;BME280;59889;50.700;5.440;2024-02-26T04:42:19;97965.62;;;20.59;34.54
72024;BME280;59889;50.700;5.440;2024-02-26T04:44:44;97971.61;;;20.58;34.57
72024;BME280;59889;50.700;5.440;2024-02-26T04:47:09;97977.45;;;20.51;34.63
72024;BME280;59889;50.700;5.440;2024-02-26T04:49:34;97981.08;;;20.39;34.79
72024;BME280;59889;50.700;5.440;2024-02-26T04:51:59;97981.81;;;20.55;34.64
72024;BME280;59889;50.700;5.440;2024-02-26T04:54:24;97980.58;;;20.55;34.65
72024;BME280;59889;50.700;5.440;2024-02-26T04:56:50;97983.50;;;20.71;34.62
72024;BME280;59889;50.700;5.440;2024-02-26T04:59:15;97982.21;;;20.71;34.68
72024;BME280;59889;50.700;5.440;2024-02-26T05:01:41;97987.65;;;20.83;34.52
72024;BME280;59889;50.700;5.440;2024-02-26T05:04:05;97987.54;;;20.80;34.58
72024;BME280;59889;50.700;5.440;2024-02-26T05:06:30;97987.60;;;20.76;34.91
72024;BME280;59889;50.700;5.440;2024-02-26T05:08:55;97991.01;;;20.45;35.26
72024;BME280;59889;50.700;5.440;2024-02-26T05:11:20;97991.56;;;20.45;35.09
72024;BME280;59889;50.700;5.440;2024-02-26T05:13:45;97996.21;;;20.45;34.91
72024;BME280;59889;50.700;5.440;2024-02-26T05:16:10;97991.80;;;20.46;34.70
72024;BME280;59889;50.700;5.440;2024-02-26T05:18:35;97995.71;;;20.89;34.56
72024;BME280;59889;50.700;5.440;2024-02-26T05:21:00;97999.29;;;20.62;34.51
72024;BME280;59889;50.700;5.440;2024-02-26T05:23:26;98008.17;;;20.37;34.53
72024;BME280;59889;50.700;5.440;2024-02-26T05:25:50;98010.65;;;20.32;34.64
72024;BME280;59889;50.700;5.440;2024-02-26T05:28:16;98010.78;;;20.34;35.00
72024;BME280;59889;50.700;5.440;2024-02-26T05:30:41;98010.69;;;20.29;35.38
72024;BME280;59889;50.700;5.440;2024-02-26T05:33:05;98011.46;;;20.65;35.48
72024;BME280;59889;50.700;5.440;2024-02-26T05:35:32;98011.64;;;20.45;35.46
72024;BME280;59889;50.700;5.440;2024-02-26T05:37:56;98012.29;;;20.37;35.74
72024;BME280;59889;50.700;5.440;2024-02-26T05:40:24;98015.90;;;20.43;35.67
72024;BME280;59889;50.700;5.440;2024-02-26T05:42:47;98019.91;;;20.23;35.66
72024;BME280;59889;50.700;5.440;2024-02-26T05:45:12;98019.87;;;20.22;35.75
72024;BME280;59889;50.700;5.440;2024-02-26T05:47:38;98025.78;;;20.74;35.69
72024;BME280;59889;50.700;5.440;2024-02-26T05:50:05;98028.22;;;20.45;35.78
72024;BME280;59889;50.700;5.440;2024-02-26T05:52:29;98030.28;;;20.75;35.77
72024;BME280;59889;50.700;5.440;2024-02-26T05:54:54;98033.47;;;20.20;35.80
72024;BME280;59889;50.700;5.440;2024-02-26T05:57:19;98036.73;;;20.24;35.79
72024;BME280;59889;50.700;5.440;2024-02-26T05:59:44;98041.74;;;20.26;35.76
72024;BME280;59889;50.700;5.440;2024-02-26T06:02:09;98043.83;;;20.47;35.79
72024;BME280;59889;50.700;5.440;2024-02-26T06:04:35;98046.77;;;20.16;35.85
72024;BME280;59889;50.700;5.440;2024-02-26T06:07:00;98051.61;;;20.20;35.83
72024;BME280;59889;50.700;5.440;2024-02-26T06:09:25;98054.63;;;20.25;35.79
72024;BME280;59889;50.700;5.440;2024-02-26T06:11:50;98056.54;;;20.42;35.84
72024;BME280;59889;50.700;5.440;2024-02-26T06:14:15;98061.00;;;20.21;35.83
72024;BME280;59889;50.700;5.440;2024-02-26T06:16:41;98062.93;;;20.20;35.83
72024;BME280;59889;50.700;5.440;2024-02-26T06:19:06;98065.95;;;20.43;35.85
72024;BME280;59889;50.700;5.440;2024-02-26T06:21:31;98069.91;;;20.29;35.72
72024;BME280;59889;50.700;5.440;2024-02-26T06:23:57;98076.36;;;20.53;35.72
72024;BME280;59889;50.700;5.440;2024-02-26T06:26:22;98087.39;;;20.28;35.71
72024;BME280;59889;50.700;5.440;2024-02-26T06:28:47;98088.20;;;20.26;35.74
72024;BME280;59889;50.700;5.440;2024-02-26T06:31:12;98091.21;;;20.45;35.80
72024;BME280;59889;50.700;5.440;2024-02-26T06:33:37;98097.14;;;20.27;35.76
72024;BME280;59889;50.700;5.440;2024-02-26T06:36:03;98100.97;;;20.41;35.85
72024;BME280;59889;50.700;5.440;2024-02-26T06:38:27;98104.69;;;20.70;35.80
72024;BME280;59889;50.700;5.440;2024-02-26T06:40:53;98110.16;;;20.47;35.80
72024;BME280;59889;50.700;5.440;2024-02-26T06:43:18;98115.94;;;20.44;35.82
72024;BME280;59889;50.700;5.440;2024-02-26T06:45:44;98118.59;;;20.46;35.82
72024;BME280;59889;50.700;5.440;2024-02-26T06:48:09;98125.35;;;20.65;35.85
72024;BME280;59889;50.700;5.440;2024-02-26T06:50:34;98128.60;;;20.16;35.85
72024;BME280;59889;50.700;5.440;2024-02-26T06:52:59;98126.91;;;20.41;35.87
72024;BME280;59889;50.700;5.440;2024-02-26T06:55:24;98126.02;;;20.62;35.88
72024;BME280;59889;50.700;5.440;2024-02-26T06:57:50;98129.45;;;20.57;35.95
72024;BME280;59889;50.700;5.440;2024-02-26T07:00:15;98134.93;;;20.56;36.00
72024;BME280;59889;50.700;5.440;2024-02-26T07:02:40;98141.96;;;20.07;36.01
72024;BME280;59889;50.700;5.440;2024-02-26T07:05:05;98141.50;;;20.31;36.00
72024;BME280;59889;50.700;5.440;2024-02-26T07:07:31;98145.29;;;20.38;35.94
72024;BME280;59889;50.700;5.440;2024-02-26T07:09:56;98149.47;;;20.34;35.95
72024;BME280;59889;50.700;5.440;2024-02-26T07:12:21;98153.33;;;20.02;36.05
72024;BME280;59889;50.700;5.440;2024-02-26T07:14:47;98155.78;;;20.57;35.97
72024;BME280;59889;50.700;5.440;2024-02-26T07:17:11;98160.63;;;20.59;36.05
72024;BME280;59889;50.700;5.440;2024-02-26T07:19:37;98162.89;;;20.34;36.05
72024;BME280;59889;50.700;5.440;2024-02-26T07:22:02;98168.38;;;20.01;36.14
72024;BME280;59889;50.700;5.440;2024-02-26T07:24:27;98168.93;;;20.29;36.07
72024;BME280;59889;50.700;5.440;2024-02-26T07:26:52;98179.90;;;19.95;36.10
72024;BME280;59889;50.700;5.440;2024-02-26T07:29:17;98182.55;;;19.92;36.10
72024;BME280;59889;50.700;5.440;2024-02-26T07:31:42;98184.67;;;20.08;36.16
72024;BME280;59889;50.700;5.440;2024-02-26T07:34:07;98188.69;;;20.28;36.19
72024;BME280;59889;50.700;5.440;2024-02-26T07:36:33;98188.12;;;20.27;36.19
72024;BME280;59889;50.700;5.440;2024-02-26T07:38:57;98192.21;;;20.40;36.05
72024;BME280;59889;50.700;5.440;2024-02-26T07:41:22;98199.37;;;20.43;36.06
72024;BME280;59889;50.700;5.440;2024-02-26T07:43:47;98200.79;;;20.24;36.03
72024;BME280;59889;50.700;5.440;2024-02-26T07:46:13;98201.84;;;20.28;36.00
72024;BME280;59889;50.700;5.440;2024-02-26T07:48:37;98207.48;;;20.26;36.07
72024;BME280;59889;50.700;5.440;2024-02-26T07:51:03;98205.92;;;20.21;36.41
72024;BME280;59889;50.700;5.440;2024-02-26T07:53:27;98212.71;;;20.07;36.43
72024;BME280;59889;50.700;5.440;2024-02-26T07:55:52;98212.73;;;19.95;36.62
72024;BME280;59889;50.700;5.440;2024-02-26T07:58:17;98218.50;;;20.16;36.75
72024;BME280;59889;50.700;5.440;2024-02-26T08:00:42;98221.73;;;20.38;36.81
72024;BME280;59889;50.700;5.440;2024-02-26T08:03:07;98224.91;;;19.89;36.81
72024;BME280;59889;50.700;5.440;2024-02-26T08:05:33;98226.88;;;20.39;36.81
72024;BME280;59889;50.700;5.440;2024-02-26T08:07:58;98231.05;;;20.13;36.78
72024;BME280;59889;50.700;5.440;2024-02-26T08:10:23;98235.05;;;20.37;36.75
72024;BME280;59889;50.700;5.440;2024-02-26T08:12:48;98241.45;;;20.06;36.86
72024;BME280;59889;50.700;5.440;2024-02-26T08:15:14;98242.63;;;19.77;36.86
72024;BME280;59889;50.700;5.440;2024-02-26T08:17:39;98244.90;;;20.28;36.81
72024;BME280;59889;50.700;5.440;2024-02-26T08:20:06;98245.20;;;20.19;36.89
72024;BME280;59889;50.700;5.440;2024-02-26T08:22:30;98249.67;;;19.97;36.85
72024;BME280;59889;50.700;5.440;2024-02-26T08:24:55;98252.95;;;19.88;36.96
72024;BME280;59889;50.700;5.440;2024-02-26T08:27:20;98255.87;;;20.21;36.84
72024;BME280;59889;50.700;5.440;2024-02-26T08:29:45;98258.00;;;20.14;36.92
72024;BME280;59889;50.700;5.440;2024-02-26T08:32:10;98262.20;;;20.09;36.96
72024;BME280;59889;50.700;5.440;2024-02-26T08:34:35;98267.39;;;20.07;36.96
72024;BME280;59889;50.700;5.440;2024-02-26T08:37:00;98270.39;;;20.12;36.89
72024;BME280;59889;50.700;5.440;2024-02-26T08:39:25;98271.30;;;20.10;36.92
72024;BME280;59889;50.700;5.440;2024-02-26T08:41:50;98271.99;;;20.14;36.85
72024;BME280;59889;50.700;5.440;2024-02-26T08:44:15;98273.32;;;20.10;36.86
72024;BME280;59889;50.700;5.440;2024-02-26T08:46:40;98272.66;;;20.15;36.79
72024;BME280;59889;50.700;5.440;2024-02-26T08:49:05;98275.41;;;19.91;36.84
72024;BME280;59889;50.700;5.440;2024-02-26T08:51:30;98277.15;;;20.11;36.92
72024;BME280;59889;50.700;5.440;2024-02-26T08:53:55;98276.81;;;20.09;36.92
72024;BME280;59889;50.700;5.440;2024-02-26T08:56:21;98280.47;;;20.05;36.93
72024;BME280;59889;50.700;5.440;2024-02-26T08:58:45;98283.26;;;20.16;36.82
72024;BME280;59889;50.700;5.440;2024-02-26T09:01:10;98285.34;;;20.12;36.84
72024;BME280;59889;50.700;5.440;2024-02-26T09:03:36;98288.23;;;20.15;36.82
72024;BME280;59889;50.700;5.440;2024-02-26T09:06:02;98292.76;;;20.13;36.81
72024;BME280;59889;50.700;5.440;2024-02-26T09:08:26;98298.14;;;20.02;36.88
72024;BME280;59889;50.700;5.440;2024-02-26T09:10:51;98303.31;;;20.09;36.78
72024;BME280;59889;50.700;5.440;2024-02-26T09:13:16;98305.23;;;20.01;36.85
72024;BME280;59889;50.700;5.440;2024-02-26T09:15:41;98304.01;;;19.99;36.89
72024;BME280;59889;50.700;5.440;2024-02-26T09:18:06;98306.32;;;19.76;36.85
72024;BME280;59889;50.700;5.440;2024-02-26T09:20:31;98305.60;;;19.97;36.89
72024;BME280;59889;50.700;5.440;2024-02-26T09:22:56;98310.12;;;19.98;36.87
72024;BME280;59889;50.700;5.440;2024-02-26T09:25:26;98311.07;;;19.93;36.95
72024;BME280;59889;50.700;5.440;2024-02-26T09:27:46;98317.85;;;19.98;36.83
72024;BME280;59889;50.700;5.440;2024-02-26T09:30:12;98317.18;;;19.97;36.83
72024;BME280;59889;50.700;5.440;2024-02-26T09:32:36;98322.14;;;19.99;36.80
72024;BME280;59889;50.700;5.440;2024-02-26T09:35:02;98323.70;;;19.94;36.81
72024;BME280;59889;50.700;5.440;2024-02-26T09:37:26;98325.62;;;19.80;36.69
72024;BME280;59889;50.700;5.440;2024-02-26T09:39:51;98326.43;;;20.00;36.73
72024;BME280;59889;50.700;5.440;2024-02-26T09:42:19;98336.47;;;19.58;36.65
72024;BME280;59889;50.700;5.440;2024-02-26T09:44:43;98338.04;;;20.09;36.59
72024;BME280;59889;50.700;5.440;2024-02-26T09:47:08;98343.08;;;20.03;36.65
72024;BME280;59889;50.700;5.440;2024-02-26T09:49:32;98344.24;;;19.85;36.67
72024;BME280;59889;50.700;5.440;2024-02-26T09:51:58;98346.27;;;20.06;36.66
72024;BME280;59889;50.700;5.440;2024-02-26T09:54:22;98349.30;;;19.78;36.68
72024;BME280;59889;50.700;5.440;2024-02-26T09:56:48;98353.51;;;20.05;36.68
72024;BME280;59889;50.700;5.440;2024-02-26T09:59:15;98357.97;;;20.07;36.67
72024;BME280;59889;50.700;5.440;2024-02-26T10:01:37;98362.40;;;20.11;36.81
72024;BME280;59889;50.700;5.440;2024-02-26T10:04:03;98363.51;;;20.14;36.55
72024;BME280;59889;50.700;5.440;2024-02-26T10:06:32;98371.19;;;20.32;36.68
72024;BME280;59889;50.700;5.440;2024-02-26T10:08:53;98372.47;;;19.85;36.69
72024;BME280;59889;50.700;5.440;2024-02-26T10:11:18;98374.05;;;20.10;36.63
72024;BME280;59889;50.700;5.440;2024-02-26T10:13:42;98376.25;;;19.97;36.75
72024;BME280;59889;50.700;5.440;2024-02-26T10:16:07;98379.23;;;20.06;36.60
72024;BME280;59889;50.700;5.440;2024-02-26T10:18:45;98381.79;;;19.85;36.56
72024;BME280;59889;50.700;5.440;2024-02-26T10:21:01;98385.32;;;19.83;36.61
72024;BME280;59889;50.700;5.440;2024-02-26T10:23:22;98387.43;;;20.12;36.57
72024;BME280;59889;50.700;5.440;2024-02-26T10:25:52;98390.80;;;20.06;36.64
72024;BME280;59889;50.700;5.440;2024-02-26T10:28:12;98391.98;;;20.11;36.59
72024;BME280;59889;50.700;5.440;2024-02-26T10:30:37;98393.50;;;20.12;36.64
72024;BME280;59889;50.700;5.440;2024-02-26T10:33:03;98396.83;;;20.07;36.68
72024;BME280;59889;50.700;5.440;2024-02-26T10:35:28;98394.95;;;19.87;36.65
72024;BME280;59889;50.700;5.440;2024-02-26T10:37:52;98395.93;;;19.82;36.72
72024;BME280;59889;50.700;5.440;2024-02-26T10:40:18;98398.81;;;20.10;36.70
72024;BME280;59889;50.700;5.440;2024-02-26T10:42:43;98403.73;;;20.08;36.72
72024;BME280;59889;50.700;5.440;2024-02-26T10:45:09;98406.68;;;20.13;36.65
72024;BME280;59889;50.700;5.440;2024-02-26T10:47:33;98410.09;;;19.88;36.70
72024;BME280;59889;50.700;5.440;2024-02-26T10:49:58;98414.46;;;20.13;36.73
72024;BME280;59889;50.700;5.440;2024-02-26T10:52:25;98422.47;;;20.12;36.73
72024;BME280;59889;50.700;5.440;2024-02-26T10:54:49;98426.28;;;20.14;36.69
72024;BME280;59889;50.700;5.440;2024-02-26T10:57:15;98432.52;;;20.06;36.77
72024;BME280;59889;50.700;5.440;2024-02-26T10:59:39;98437.04;;;19.91;36.64
72024;BME280;59889;50.700;5.440;2024-02-26T11:02:04;98442.76;;;20.08;36.65
72024;BME280;59889;50.700;5.440;2024-02-26T11:04:29;98441.64;;;20.11;36.57
72024;BME280;59889;50.700;5.440;2024-02-26T11:06:54;98449.77;;;20.05;36.62
72024;BME280;59889;50.700;5.440;2024-02-26T11:09:19;98453.94;;;20.09;36.57
72024;BME280;59889;50.700;5.440;2024-02-26T11:11:44;98457.46;;;20.09;36.54
72024;BME280;59889;50.700;5.440;2024-02-26T11:14:09;98462.85;;;20.07;36.55
72024;BME280;59889;50.700;5.440;2024-02-26T11:16:34;98465.47;;;19.81;36.54
72024;BME280;59889;50.700;5.440;2024-02-26T11:19:00;98474.67;;;20.04;36.54
72024;BME280;59889;50.700;5.440;2024-02-26T11:21:24;98474.05;;;20.08;36.49
72024;BME280;59889;50.700;5.440;2024-02-26T11:23:49;98474.20;;;20.08;36.45
72024;BME280;59889;50.700;5.440;2024-02-26T11:26:15;98474.32;;;20.12;36.37
72024;BME280;59889;50.700;5.440;2024-02-26T11:28:40;98476.70;;;20.09;36.38
72024;BME280;59889;50.700;5.440;2024-02-26T11:31:05;98479.86;;;20.08;36.37
72024;BME280;59889;50.700;5.440;2024-02-26T11:33:30;98478.69;;;20.07;36.39
72024;BME280;59889;50.700;5.440;2024-02-26T11:35:55;98482.91;;;20.10;36.35
72024;BME280;59889;50.700;5.440;2024-02-26T11:38:21;98485.38;;;20.07;36.37
72024;BME280;59889;50.700;5.440;2024-02-26T11:40:44;98485.07;;;20.24;36.45
72024;BME280;59889;50.700;5.440;2024-02-26T11:43:10;98489.71;;;20.09;36.34
72024;BME280;59889;50.700;5.440;2024-02-26T11:45:50;98491.71;;;20.02;36.40
72024;BME280;59889;50.700;5.440;2024-02-26T11:48:01;98495.17;;;20.07;36.32
72024;BME280;59889;50.700;5.440;2024-02-26T11:50:33;98491.81;;;20.38;36.30
72024;BME280;59889;50.700;5.440;2024-02-26T11:57:40;98498.73;;;19.97;36.44
72024;BME280;59889;50.700;5.440;2024-02-26T12:00:12;98502.09;;;19.75;36.40
72024;BME280;59889;50.700;5.440;2024-02-26T12:02:39;98503.83;;;20.02;36.32
72024;BME280;59889;50.700;5.440;2024-02-26T12:04:55;98506.14;;;19.79;36.28
72024;BME280;59889;50.700;5.440;2024-02-26T12:07:22;98506.43;;;20.04;36.22
72024;BME280;59889;50.700;5.440;2024-02-26T12:09:46;98512.88;;;19.74;36.30
72024;BME280;59889;50.700;5.440;2024-02-26T12:12:17;98513.47;;;19.84;36.19
72024;BME280;59889;50.700;5.440;2024-02-26T12:14:38;98516.92;;;20.07;36.18
72024;BME280;59889;50.700;5.440;2024-02-26T12:17:01;98518.99;;;20.08;36.23
72024;BME280;59889;50.700;5.440;2024-02-26T12:19:27;98522.75;;;20.03;36.24
72024;BME280;59889;50.700;5.440;2024-02-26T12:21:52;98524.17;;;20.03;36.28
72024;BME280;59889;50.700;5.440;2024-02-26T12:24:18;98526.94;;;20.05;36.27
72024;BME280;59889;50.700;5.440;2024-02-26T12:26:41;98532.44;;;20.03;36.28
72024;BME280;59889;50.700;5.440;2024-02-26T12:29:08;98535.16;;;20.31;36.22
72024;BME280;59889;50.700;5.440;2024-02-26T12:31:32;98541.57;;;20.24;36.28
72024;BME280;59889;50.700;5.440;2024-02-26T12:33:57;98544.60;;;19.58;36.23
72024;BME280;59889;50.700;5.440;2024-02-26T12:36:22;98547.45;;;20.15;36.10
72024;BME280;59889;50.700;5.440;2024-02-26T12:38:48;98552.87;;;20.29;36.22
72024;BME280;59889;50.700;5.440;2024-02-26T12:41:13;98559.73;;;20.03;36.27
72024;BME280;59889;50.700;5.440;2024-02-26T12:43:37;98566.16;;;19.73;36.33
72024;BME280;59889;50.700;5.440;2024-02-26T12:46:03;98572.86;;;19.84;36.19
72024;BME280;59889;50.700;5.440;2024-02-26T12:48:27;98579.47;;;20.04;36.25
72024;BME280;59889;50.700;5.440;2024-02-26T12:50:52;98581.54;;;19.53;36.26
72024;BME280;59889;50.700;5.440;2024-02-26T12:53:17;98584.84;;;19.97;36.31